Time;durP1;ratioP1;P1;durP2;ratioP2;P2;SDS_P1;SDS_P2;PMS_P1;PMS_P2;Temp;Humidity;BMP_temperature;BMP_pressure;BME280_temperature;BME280_humidity;BME280_pressure;Samples;Min_cycle;Max_cycle;Signal;HPM_P1;HPM_P2
2022/12/09 00:02:11;;;;;;;12.50;8.70;;;8.40;43.60;;;;;;4993709;28;20175;-52
2022/12/09 00:04:37;;;;;;;12.87;9.37;;;8.40;43.70;;;;;;4994263;28;20406;-52
2022/12/09 00:07:02;;;;;;;9.20;7.53;;;8.40;43.70;;;;;;4993812;28;20191;-52
2022/12/09 00:09:28;;;;;;;13.97;9.97;;;8.30;43.70;;;;;;4993833;28;20479;-52
2022/12/09 00:11:54;;;;;;;11.37;7.43;;;8.40;43.70;;;;;;4993692;28;20182;-52
2022/12/09 00:14:19;;;;;;;12.20;7.67;;;8.40;43.90;;;;;;4992732;28;20539;-52
2022/12/09 00:16:45;;;;;;;12.43;8.20;;;8.40;43.90;;;;;;4993696;28;20562;-52
2022/12/09 00:19:11;;;;;;;13.07;8.90;;;8.40;43.80;;;;;;4993709;28;20226;-52
2022/12/09 00:21:37;;;;;;;14.63;8.73;;;8.40;43.80;;;;;;4993619;28;20273;-52
2022/12/09 00:24:05;;;;;;;14.70;10.90;;;8.40;43.80;;;;;;4993588;28;20410;-52
2022/12/09 00:26:31;;;;;;;12.02;9.23;;;8.40;43.80;;;;;;4993588;28;20191;-52
2022/12/09 00:28:58;;;;;;;11.73;8.35;;;8.40;43.90;;;;;;4993561;28;20213;-52
2022/12/09 00:31:31;;;;;;;11.95;8.13;;;8.40;43.90;;;;;;4993482;28;20182;-52
2022/12/09 00:33:59;;;;;;;10.70;8.40;;;8.50;43.90;;;;;;4993235;28;20637;-52
2022/12/09 00:36:25;;;;;;;13.13;8.77;;;8.40;43.90;;;;;;4993277;28;20686;-52
2022/12/09 00:38:52;;;;;;;14.45;8.23;;;8.40;44.00;;;;;;4993273;28;20187;-52
2022/12/09 00:41:18;;;;;;;11.95;8.30;;;8.40;44.00;;;;;;4993353;28;20183;-52
2022/12/09 00:43:44;;;;;;;11.07;8.37;;;8.40;43.90;;;;;;4992968;28;20552;-52
2022/12/09 00:46:11;;;;;;;14.70;9.00;;;8.40;44.00;;;;;;4993456;28;20772;-52
2022/12/09 00:48:37;;;;;;;13.63;8.30;;;8.40;44.00;;;;;;4993156;28;20199;-52
2022/12/09 00:51:04;;;;;;;11.35;7.90;;;8.50;44.10;;;;;;4993143;28;20596;-52
2022/12/09 00:53:30;;;;;;;12.00;10.02;;;8.40;43.90;;;;;;4992978;28;20258;-52
2022/12/09 00:55:56;;;;;;;11.35;8.23;;;8.50;44.70;;;;;;4993097;28;20295;-52
2022/12/09 00:58:22;;;;;;;13.53;9.43;;;8.40;44.00;;;;;;4992899;28;20266;-51
2022/12/09 01:00:48;;;;;;;16.52;10.65;;;8.40;43.90;;;;;;4992949;28;20179;-52
2022/12/09 01:03:16;;;;;;;12.65;9.18;;;8.40;44.00;;;;;;4992750;28;20270;-52
2022/12/09 01:05:42;;;;;;;11.68;8.90;;;8.40;44.10;;;;;;4993171;28;20616;-52
2022/12/09 01:08:09;;;;;;;14.65;10.13;;;8.40;43.90;;;;;;4992846;28;20294;-52
2022/12/09 01:10:36;;;;;;;14.70;11.23;;;8.40;43.90;;;;;;4992900;28;20171;-52
2022/12/09 01:13:02;;;;;;;13.90;9.82;;;8.40;43.90;;;;;;4992820;28;20619;-52
2022/12/09 01:15:29;;;;;;;13.00;9.88;;;8.30;44.00;;;;;;4993008;28;20233;-52
2022/12/09 01:17:55;;;;;;;12.93;9.45;;;8.30;44.90;;;;;;4992934;28;20194;-53
2022/12/09 01:20:21;;;;;;;12.77;9.02;;;8.20;44.10;;;;;;4992684;28;20594;-52
2022/12/09 01:22:47;;;;;;;15.10;8.87;;;8.20;44.10;;;;;;4992537;28;20205;-52
2022/12/09 01:25:13;;;;;;;11.50;8.40;;;8.20;44.20;;;;;;4992392;28;20174;-52
2022/12/09 01:27:39;;;;;;;13.30;9.27;;;8.20;44.30;;;;;;4992453;28;20426;-51
2022/12/09 01:30:07;;;;;;;11.30;9.00;;;8.30;44.30;;;;;;4993114;28;20182;-52
2022/12/09 01:32:33;;;;;;;13.27;8.50;;;8.20;44.50;;;;;;4992678;28;20496;-52
2022/12/09 01:34:58;;;;;;;14.47;10.13;;;8.30;44.40;;;;;;4992801;28;20701;-50
2022/12/09 01:37:24;;;;;;;14.33;9.90;;;8.20;44.30;;;;;;4992614;28;20195;-52
2022/12/09 01:39:50;;;;;;;18.80;10.27;;;8.20;44.50;;;;;;4992755;28;20540;-52
2022/12/09 01:42:21;;;;;;;13.07;9.37;;;8.20;44.50;;;;;;4992513;28;20179;-52
2022/12/09 01:45:20;;;;;;;13.57;10.82;;;8.20;44.60;;;;;;4992488;28;20406;-52
2022/12/09 01:48:10;;;;;;;14.18;9.88;;;8.20;44.50;;;;;;4992653;28;20183;-53
2022/12/09 01:50:39;;;;;;;12.75;8.95;;;8.20;44.40;;;;;;4992466;28;20160;-52
2022/12/09 01:53:06;;;;;;;12.25;9.20;;;8.20;44.40;;;;;;4992374;28;20544;-52
2022/12/09 01:55:33;;;;;;;13.75;10.00;;;8.30;44.60;;;;;;4992429;28;20215;-52
2022/12/09 01:57:58;;;;;;;13.43;9.68;;;8.30;44.60;;;;;;4992444;28;20191;-52
2022/12/09 02:00:24;;;;;;;16.97;10.67;;;8.30;44.40;;;;;;4992661;28;20175;-52
2022/12/09 02:02:53;;;;;;;12.60;8.45;;;8.30;44.40;;;;;;4991987;28;20410;-52
2022/12/09 02:05:20;;;;;;;12.60;8.90;;;8.30;44.40;;;;;;4992411;28;20558;-52
2022/12/09 02:07:45;;;;;;;17.08;8.90;;;8.30;44.50;;;;;;4992203;28;20179;-52
2022/12/09 02:10:13;;;;;;;15.30;10.03;;;8.30;44.50;;;;;;4992319;28;20179;-52
2022/12/09 02:12:46;;;;;;;13.65;9.20;;;8.30;44.60;;;;;;4992279;28;20542;-52
2022/12/09 02:15:19;;;;;;;14.10;10.20;;;8.30;44.60;;;;;;4992391;28;20167;-52
2022/12/09 02:17:53;;;;;;;11.50;9.77;;;8.30;45.30;;;;;;4992496;28;20185;-52
2022/12/09 02:20:43;;;;;;;16.13;9.68;;;8.30;44.70;;;;;;4992363;28;20171;-52
2022/12/09 02:23:23;;;;;;;20.17;8.80;;;8.30;44.70;;;;;;4992049;28;20172;-52
2022/12/09 02:25:56;;;;;;;18.63;10.30;;;8.20;44.60;;;;;;4992235;28;20341;-53
2022/12/09 02:28:22;;;;;;;13.75;9.77;;;8.20;44.80;;;;;;4992286;28;20581;-51
2022/12/09 02:31:18;;;;;;;15.90;11.03;;;8.20;44.90;;;;;;4992061;28;20174;-52
2022/12/09 02:34:22;;;;;;;12.10;9.35;;;8.20;44.80;;;;;;4991965;28;20581;-52
2022/12/09 02:36:51;;;;;;;13.90;9.55;;;8.20;44.80;;;;;;4992223;28;20206;-52
2022/12/09 02:39:24;;;;;;;13.98;10.27;;;8.20;45.00;;;;;;4995578;28;20178;-52
2022/12/09 02:41:52;;;;;;;11.98;8.77;;;8.20;45.00;;;;;;4995388;28;20637;-52
2022/12/09 02:44:20;;;;;;;13.20;9.15;;;8.20;45.00;;;;;;4995469;28;20219;-52
2022/12/09 02:46:48;;;;;;;12.75;10.18;;;8.20;45.00;;;;;;4995646;28;20203;-52
2022/12/09 02:49:14;;;;;;;13.07;9.90;;;8.20;45.00;;;;;;4995299;28;20575;-52
2022/12/09 02:51:43;;;;;;;14.05;11.60;;;8.20;45.30;;;;;;4995577;28;20589;-52
2022/12/09 02:54:12;;;;;;;13.95;10.93;;;8.10;45.50;;;;;;4995439;28;20176;-52
2022/12/09 02:56:41;;;;;;;15.55;10.48;;;8.10;45.50;;;;;;4995027;28;20222;-52
2022/12/09 02:59:06;;;;;;;13.07;9.20;;;8.10;45.50;;;;;;4995240;28;20522;-52
2022/12/09 03:01:56;;;;;;;14.90;10.10;;;8.10;45.50;;;;;;4995454;28;20182;-52
2022/12/09 03:04:24;;;;;;;15.77;10.95;;;8.10;46.10;;;;;;4995228;28;20246;-52
2022/12/09 03:06:52;;;;;;;11.52;8.23;;;8.20;45.50;;;;;;4995068;28;20195;-52
2022/12/09 03:09:31;;;;;;;15.95;10.13;;;8.20;45.50;;;;;;4994960;28;20217;-52
2022/12/09 03:12:01;;;;;;;13.32;10.00;;;8.20;45.40;;;;;;4995029;28;20176;-52
2022/12/09 03:14:50;;;;;;;10.38;8.30;;;8.20;45.40;;;;;;4995328;28;20164;-52
2022/12/09 03:17:32;;;;;;;13.18;9.35;;;8.20;45.30;;;;;;4994859;28;20249;-53
2022/12/09 03:20:15;;;;;;;14.35;9.55;;;8.20;45.40;;;;;;4994821;28;20183;-53
2022/12/09 03:22:44;;;;;;;12.82;9.23;;;8.20;45.40;;;;;;4994770;28;20182;-53
2022/12/09 03:25:33;;;;;;;19.00;12.25;;;8.20;45.60;;;;;;4994889;28;20182;-52
2022/12/09 03:28:05;;;;;;;13.52;9.02;;;8.10;45.50;;;;;;4994641;28;20198;-52
2022/12/09 03:30:34;;;;;;;14.55;9.70;;;8.10;45.70;;;;;;4994927;28;20635;-52
2022/12/09 03:33:02;;;;;;;18.13;10.40;;;8.10;45.80;;;;;;4994635;28;20188;-53
2022/12/09 03:35:38;;;;;;;14.20;9.73;;;8.10;45.80;;;;;;4994542;28;20167;-53
2022/12/09 03:38:07;;;;;;;14.57;10.38;;;8.10;45.70;;;;;;4994818;28;20182;-52
2022/12/09 03:40:35;;;;;;;11.70;9.20;;;8.20;45.50;;;;;;4994436;28;20577;-52
2022/12/09 03:43:12;;;;;;;13.32;10.05;;;8.20;45.40;;;;;;4994136;28;20198;-53
2022/12/09 03:45:39;;;;;;;12.30;10.02;;;8.20;45.40;;;;;;4994619;28;20229;-53
2022/12/09 03:48:05;;;;;;;15.43;10.63;;;8.20;45.40;;;;;;4994361;28;20202;-52
2022/12/09 03:50:39;;;;;;;12.55;9.25;;;8.20;45.40;;;;;;4994292;28;20195;-53
2022/12/09 03:53:19;;;;;;;13.35;9.07;;;8.20;45.50;;;;;;4994117;28;20199;-53
2022/12/09 03:55:56;;;;;;;12.85;9.88;;;8.20;45.50;;;;;;4993995;28;20203;-52
2022/12/09 03:58:22;;;;;;;14.88;10.05;;;8.20;45.50;;;;;;4994440;28;20197;-52
2022/12/09 04:00:49;;;;;;;12.52;9.32;;;8.20;45.60;;;;;;4994383;28;20651;-53
2022/12/09 04:03:16;;;;;;;12.95;8.05;;;8.20;45.60;;;;;;4993885;28;20171;-53
2022/12/09 04:05:42;;;;;;;16.13;10.00;;;8.20;45.60;;;;;;4993877;28;20214;-53
2022/12/09 04:08:09;;;;;;;13.73;8.97;;;8.20;45.60;;;;;;4993882;28;20195;-53
2022/12/09 04:10:34;;;;;;;13.32;9.35;;;8.20;45.60;;;;;;4993839;28;20533;-52
2022/12/09 04:13:00;;;;;;;12.33;9.47;;;8.20;45.60;;;;;;4993774;28;20179;-53
2022/12/09 04:15:26;;;;;;;15.40;11.13;;;8.20;45.60;;;;;;4993677;28;20689;-53
2022/12/09 04:17:51;;;;;;;12.90;9.53;;;8.20;45.60;;;;;;4994059;28;20262;-52
2022/12/09 04:20:17;;;;;;;13.80;10.67;;;8.20;45.60;;;;;;4993900;28;20183;-52
2022/12/09 04:22:43;;;;;;;13.57;9.60;;;8.20;45.60;;;;;;4993721;28;20585;-52
2022/12/09 04:25:09;;;;;;;12.77;9.40;;;8.20;45.70;;;;;;4993529;28;20645;-53
2022/12/09 04:27:34;;;;;;;18.27;12.37;;;8.80;46.00;;;;;;4993751;28;20191;-53
2022/12/09 04:30:00;;;;;;;15.63;10.77;;;8.20;45.70;;;;;;4993510;28;20427;-52
2022/12/09 04:32:28;;;;;;;13.40;9.27;;;8.20;45.70;;;;;;4993573;28;20261;-52
2022/12/09 04:34:54;;;;;;;13.88;10.05;;;8.20;45.70;;;;;;4993340;28;20179;-52
2022/12/09 04:37:20;;;;;;;12.30;9.20;;;8.20;45.70;;;;;;4993612;28;20530;-52
2022/12/09 04:39:45;;;;;;;12.63;9.70;;;8.20;45.70;;;;;;4993271;28;20182;-53
2022/12/09 04:42:11;;;;;;;12.33;10.00;;;8.20;45.80;;;;;;4993353;28;20179;-53
2022/12/09 04:44:37;;;;;;;14.60;9.80;;;8.20;45.80;;;;;;4993315;28;20189;-52
2022/12/09 04:47:03;;;;;;;13.93;9.77;;;8.20;45.80;;;;;;4993331;28;20270;-52
2022/12/09 04:49:29;;;;;;;14.70;10.17;;;8.20;45.80;;;;;;4993034;28;20206;-52
2022/12/09 04:51:55;;;;;;;12.85;9.75;;;8.20;45.80;;;;;;4993268;28;20180;-52
2022/12/09 04:54:21;;;;;;;14.17;10.50;;;8.20;45.80;;;;;;4993310;28;20674;-52
2022/12/09 04:56:48;;;;;;;17.10;10.17;;;8.20;45.80;;;;;;4992988;28;20497;-52
2022/12/09 04:59:15;;;;;;;15.38;11.82;;;8.10;45.90;;;;;;4993145;28;20186;-51
2022/12/09 05:01:40;;;;;;;14.23;9.93;;;8.10;45.90;;;;;;4992698;28;20187;-52
2022/12/09 05:04:06;;;;;;;12.90;10.90;;;8.10;45.90;;;;;;4992869;28;20182;-52
2022/12/09 05:06:32;;;;;;;14.70;10.90;;;8.10;45.80;;;;;;4993085;28;20692;-51
2022/12/09 05:08:58;;;;;;;14.27;10.10;;;8.10;45.60;;;;;;4992783;28;20207;-52
2022/12/09 05:11:23;;;;;;;15.37;9.70;;;8.10;45.80;;;;;;4992978;28;20511;-53
2022/12/09 05:13:50;;;;;;;17.73;10.50;;;8.00;45.80;;;;;;4992888;28;20260;-53
2022/12/09 05:16:18;;;;;;;12.60;9.80;;;8.00;45.90;;;;;;4993007;28;20465;-53
2022/12/09 05:18:46;;;;;;;16.83;11.00;;;8.00;46.00;;;;;;4992732;28;20243;-52
2022/12/09 05:21:15;;;;;;;15.80;10.25;;;8.10;46.10;;;;;;4992785;28;20175;-53
2022/12/09 05:23:41;;;;;;;14.40;10.40;;;8.10;45.90;;;;;;4992540;28;20325;-52
2022/12/09 05:26:09;;;;;;;13.75;10.82;;;8.10;46.00;;;;;;4992593;28;20210;-52
2022/12/09 05:28:36;;;;;;;14.95;11.15;;;8.10;46.00;;;;;;4992851;28;20211;-51
2022/12/09 05:31:11;;;;;;;14.32;10.90;;;8.10;46.00;;;;;;4992892;28;20173;-53
2022/12/09 05:33:37;;;;;;;17.27;11.07;;;8.10;46.00;;;;;;4992538;28;20225;-52
2022/12/09 05:36:03;;;;;;;16.53;10.83;;;8.10;46.00;;;;;;4992737;28;20191;-52
2022/12/09 05:38:29;;;;;;;14.05;10.60;;;8.00;46.10;;;;;;4992609;28;20276;-52
2022/12/09 05:40:58;;;;;;;13.98;8.38;;;8.00;46.30;;;;;;4992540;28;20649;-53
2022/12/09 05:43:24;;;;;;;12.52;8.57;;;8.00;46.40;;;;;;4992524;28;20182;-52
2022/12/09 05:45:50;;;;;;;11.60;8.40;;;7.90;46.70;;;;;;4992567;28;20206;-52
2022/12/09 05:48:16;;;;;;;11.93;9.30;;;7.90;46.80;;;;;;4992287;28;20895;-53
2022/12/09 05:50:42;;;;;;;11.93;7.40;;;7.90;46.80;;;;;;4992405;28;20418;-53
2022/12/09 05:53:07;;;;;;;13.90;9.90;;;7.80;46.90;;;;;;4992160;28;20179;-52
2022/12/09 05:55:33;;;;;;;11.67;8.90;;;7.80;47.00;;;;;;4992259;28;20214;-51
2022/12/09 05:57:59;;;;;;;12.67;8.70;;;7.80;47.00;;;;;;4992586;28;20172;-52
2022/12/09 06:00:25;;;;;;;12.35;9.07;;;7.80;47.10;;;;;;4992589;28;20178;-52
2022/12/09 06:02:50;;;;;;;12.87;8.87;;;7.80;47.20;;;;;;4991983;28;20190;-53
2022/12/09 06:05:17;;;;;;;12.73;9.10;;;7.80;47.20;;;;;;4992431;28;20198;-51
2022/12/09 06:07:42;;;;;;;15.55;9.70;;;7.90;47.20;;;;;;4992350;28;20193;-52
2022/12/09 06:10:08;;;;;;;14.13;8.10;;;7.90;47.10;;;;;;4992249;28;20179;-52
2022/12/09 06:12:34;;;;;;;14.63;8.43;;;8.00;46.80;;;;;;4992728;28;20179;-52
2022/12/09 06:15:00;;;;;;;12.13;8.13;;;7.90;46.80;;;;;;4995980;28;20216;-53
2022/12/09 06:17:25;;;;;;;11.07;7.43;;;8.00;46.80;;;;;;4995943;28;20197;-51
2022/12/09 06:19:51;;;;;;;8.57;6.97;;;7.90;46.90;;;;;;4996320;28;20568;-52
2022/12/09 06:22:17;;;;;;;9.87;7.27;;;8.00;46.80;;;;;;4995653;28;20175;-52
2022/12/09 06:24:42;;;;;;;15.50;9.20;;;8.00;46.80;;;;;;4995771;28;20187;-52
2022/12/09 06:27:08;;;;;;;10.23;7.90;;;8.00;46.70;;;;;;4995957;28;20231;-52
2022/12/09 06:29:34;;;;;;;13.63;8.03;;;8.00;46.70;;;;;;4995942;28;20277;-53
2022/12/09 06:31:59;;;;;;;11.30;8.07;;;8.00;46.60;;;;;;4995499;28;20203;-52
2022/12/09 06:34:26;;;;;;;15.90;9.67;;;8.00;46.60;;;;;;4995928;28;20179;-52
2022/12/09 06:36:52;;;;;;;13.10;9.15;;;8.00;46.60;;;;;;4995760;28;20252;-52
2022/12/09 06:39:18;;;;;;;11.43;8.30;;;8.00;46.60;;;;;;4995719;28;20189;-51
2022/12/09 06:41:44;;;;;;;13.90;8.30;;;8.00;46.50;;;;;;4995824;28;20195;-53
2022/12/09 06:44:12;;;;;;;11.17;7.90;;;8.10;46.50;;;;;;4995206;28;20995;-52
2022/12/09 06:46:38;;;;;;;14.45;10.07;;;8.10;46.50;;;;;;4995361;28;20206;-52
2022/12/09 06:49:04;;;;;;;13.13;10.70;;;8.10;46.50;;;;;;4995256;28;20211;-53
2022/12/09 06:51:30;;;;;;;12.83;9.07;;;8.10;46.50;;;;;;4995324;28;20266;-52
2022/12/09 06:53:55;;;;;;;9.30;7.10;;;8.10;46.50;;;;;;4995360;28;20167;-52
2022/12/09 06:56:22;;;;;;;11.00;8.03;;;8.10;46.50;;;;;;4995055;28;20234;-52
2022/12/09 06:58:48;;;;;;;12.85;8.98;;;8.10;46.50;;;;;;4995118;28;20410;-53
2022/12/09 07:01:19;;;;;;;12.60;7.40;;;8.10;46.50;;;;;;4995473;28;20187;-53
2022/12/09 07:03:48;;;;;;;12.13;7.80;;;8.10;46.50;;;;;;4994990;28;20255;-53
2022/12/09 07:06:25;;;;;;;14.45;8.65;;;8.10;46.50;;;;;;4995198;28;20199;-53
2022/12/09 07:08:50;;;;;;;10.20;7.65;;;8.10;46.60;;;;;;4994962;28;20198;-52
2022/12/09 07:11:16;;;;;;;13.10;9.10;;;8.10;46.60;;;;;;4994854;28;20179;-53
2022/12/09 07:13:42;;;;;;;13.57;9.20;;;8.10;46.60;;;;;;4994652;28;20403;-52
2022/12/09 07:16:08;;;;;;;12.67;8.00;;;8.10;46.60;;;;;;4995121;28;20481;-53
2022/12/09 07:18:34;;;;;;;10.77;7.90;;;8.10;46.70;;;;;;4994790;28;20181;-53
2022/12/09 07:21:09;;;;;;;10.53;8.20;;;8.10;47.40;;;;;;4994965;28;20429;-53
2022/12/09 07:23:35;;;;;;;11.95;8.18;;;8.10;46.70;;;;;;4994018;28;20190;-52
2022/12/09 07:26:01;;;;;;;17.23;9.35;;;8.10;46.70;;;;;;4994626;28;20656;-52
2022/12/09 07:28:28;;;;;;;14.60;8.93;;;8.10;46.70;;;;;;4994849;28;20242;-52
2022/12/09 07:30:53;;;;;;;14.93;10.70;;;8.10;46.70;;;;;;4994548;28;20916;-51
2022/12/09 07:33:19;;;;;;;13.13;9.57;;;8.20;46.70;;;;;;4994483;28;20226;-52
2022/12/09 07:35:45;;;;;;;18.80;9.80;;;8.20;46.70;;;;;;4994748;28;20193;-53
2022/12/09 07:38:10;;;;;;;12.40;8.40;;;8.20;46.70;;;;;;4994500;28;20702;-52
2022/12/09 07:40:39;;;;;;;12.23;8.90;;;8.20;46.70;;;;;;4994458;28;20198;-52
2022/12/09 07:43:06;;;;;;;20.10;11.13;;;8.30;46.80;;;;;;4994869;28;20590;-51
2022/12/09 07:45:36;;;;;;;16.63;11.25;;;8.30;46.80;;;;;;4994338;28;20178;-51
2022/12/09 07:48:02;;;;;;;20.60;10.95;;;8.30;46.70;;;;;;4994500;28;20182;-51
2022/12/09 07:50:27;;;;;;;16.80;12.82;;;8.40;46.60;;;;;;4994550;28;20214;-51
2022/12/09 07:52:53;;;;;;;16.13;11.40;;;8.40;46.60;;;;;;4993904;28;20175;-52
2022/12/09 07:55:19;;;;;;;18.83;11.93;;;8.50;46.60;;;;;;4994032;28;20168;-52
2022/12/09 07:57:45;;;;;;;14.30;10.77;;;8.60;46.60;;;;;;4994116;28;20185;-51
2022/12/09 08:00:11;;;;;;;15.70;10.07;;;8.60;46.50;;;;;;4994307;28;20410;-52
2022/12/09 08:02:37;;;;;;;18.08;13.43;;;8.70;46.50;;;;;;4993976;28;20181;-52
2022/12/09 08:05:03;;;;;;;16.20;12.33;;;8.70;46.30;;;;;;4993992;28;20180;-52
2022/12/09 08:07:29;;;;;;;19.65;12.57;;;8.80;46.20;;;;;;4994066;28;20550;-51
2022/12/09 08:09:55;;;;;;;17.70;11.93;;;8.80;46.20;;;;;;4994135;28;20226;-51
2022/12/09 08:12:22;;;;;;;25.48;13.32;;;8.90;46.20;;;;;;4993624;28;20598;-52
2022/12/09 08:14:48;;;;;;;26.13;12.05;;;8.90;46.10;;;;;;4993966;28;20277;-51
2022/12/09 08:17:14;;;;;;;18.60;12.80;;;9.00;46.10;;;;;;4993651;28;20278;-52
2022/12/09 08:19:40;;;;;;;20.33;12.07;;;9.00;45.90;;;;;;4993638;28;20917;-52
2022/12/09 08:22:06;;;;;;;19.73;12.85;;;9.00;45.40;;;;;;4993364;28;20186;-51
2022/12/09 08:24:32;;;;;;;18.77;12.77;;;9.00;44.80;;;;;;4993906;28;20194;-51
2022/12/09 08:26:58;;;;;;;15.30;11.57;;;9.00;44.60;;;;;;4993442;28;20468;-52
2022/12/09 08:29:25;;;;;;;19.73;11.48;;;8.90;44.50;;;;;;4993767;28;20624;-52
2022/12/09 08:31:50;;;;;;;19.35;12.55;;;8.90;44.30;;;;;;4993326;28;20549;-51
2022/12/09 08:34:16;;;;;;;19.60;11.20;;;8.80;44.60;;;;;;4993384;28;20171;-52
2022/12/09 08:36:42;;;;;;;19.40;12.83;;;8.80;45.00;;;;;;4992735;28;20205;-51
2022/12/09 08:39:11;;;;;;;16.85;12.05;;;8.80;45.20;;;;;;4993435;28;20441;-52
2022/12/09 08:41:38;;;;;;;18.13;11.10;;;8.80;45.20;;;;;;4993529;28;20244;-52
2022/12/09 08:44:05;;;;;;;16.85;10.88;;;8.80;44.80;;;;;;4993253;28;20186;-51
2022/12/09 08:46:32;;;;;;;16.92;11.63;;;8.80;44.70;;;;;;4993107;28;20703;-51
2022/12/09 08:49:00;;;;;;;20.95;12.48;;;8.80;44.50;;;;;;4993003;28;20238;-51
2022/12/09 08:51:27;;;;;;;21.52;15.57;;;8.80;44.00;;;;;;4993078;28;20587;-52
2022/12/09 08:53:53;;;;;;;26.30;13.25;;;8.80;43.90;;;;;;4993014;28;20269;-52
2022/12/09 08:56:18;;;;;;;21.07;12.20;;;8.70;44.10;;;;;;4992959;28;20289;-52
2022/12/09 08:58:45;;;;;;;21.07;12.53;;;8.80;44.10;;;;;;4993046;28;20254;-51
2022/12/09 09:01:19;;;;;;;18.35;11.40;;;8.70;43.90;;;;;;4992950;28;20256;-52
2022/12/09 09:03:45;;;;;;;19.83;12.70;;;8.70;44.20;;;;;;4992669;28;20700;-52
2022/12/09 09:06:12;;;;;;;21.00;12.60;;;8.60;44.30;;;;;;4992859;28;20205;-52
2022/12/09 09:08:39;;;;;;;18.95;11.43;;;8.70;44.30;;;;;;4992780;28;20712;-51
2022/12/09 09:11:10;;;;;;;20.42;12.18;;;8.90;44.60;;;;;;4992872;28;20254;-50
2022/12/09 09:13:38;;;;;;;21.45;13.05;;;9.30;44.80;;;;;;4992625;28;20552;-52
2022/12/09 09:16:07;;;;;;;22.23;12.13;;;9.60;43.70;;;;;;4992871;28;20269;-52
2022/12/09 09:18:32;;;;;;;17.60;11.82;;;9.80;42.30;;;;;;4992737;28;20190;-51
2022/12/09 09:31:07;;;;;;;17.20;11.27;;;10.10;40.70;;;;;;4992501;28;20194;-52
2022/12/09 09:33:33;;;;;;;20.05;11.75;;;10.10;40.60;;;;;;4992498;28;20195;-52
2022/12/09 09:36:01;;;;;;;20.25;13.45;;;10.40;40.40;;;;;;4992574;28;20206;-51
2022/12/09 09:38:28;;;;;;;12.63;10.80;;;10.90;39.80;;;;;;4992583;28;20226;-52
2022/12/09 09:40:54;;;;;;;24.27;11.27;;;11.40;39.00;;;;;;4992493;28;20546;-52
2022/12/09 09:43:24;;;;;;;16.58;11.60;;;11.70;38.10;;;;;;4992546;28;20179;-52
2022/12/09 09:45:53;;;;;;;16.27;10.98;;;11.90;37.20;;;;;;4992701;28;20199;-52
2022/12/09 09:48:24;;;;;;;19.40;13.20;;;12.00;36.70;;;;;;4996385;28;20299;-51
2022/12/09 09:50:52;;;;;;;16.88;12.38;;;11.70;36.80;;;;;;4996797;28;20166;-52
2022/12/09 09:53:25;;;;;;;15.93;11.50;;;11.50;36.50;;;;;;4996155;28;20191;-52
2022/12/09 09:56:00;;;;;;;17.45;12.85;;;11.30;36.20;;;;;;4996390;28;20237;-52
2022/12/09 09:59:05;;;;;;;19.23;13.13;;;11.40;36.70;;;;;;4996431;28;20586;-52
2022/12/09 10:01:33;;;;;;;17.13;13.07;;;11.90;36.60;;;;;;4984104;28;20182;-52
2022/12/09 10:04:10;;;;;;;17.98;13.73;;;12.20;35.40;;;;;;4996056;28;20217;-52
2022/12/09 10:06:54;;;;;;;20.30;13.65;;;12.20;35.30;;;;;;4996464;28;20198;-52
2022/12/09 10:09:34;;;;;;;22.98;14.85;;;11.90;35.20;;;;;;4996120;28;20183;-52
2022/12/09 10:12:14;;;;;;;21.83;14.68;;;11.50;35.20;;;;;;4995753;28;20262;-52
2022/12/09 10:15:00;;;;;;;20.27;14.07;;;10.90;35.40;;;;;;4996114;28;20487;-51
2022/12/09 10:17:32;;;;;;;17.75;13.30;;;10.30;36.20;;;;;;4996141;28;20198;-52
2022/12/09 10:20:09;;;;;;;22.98;16.08;;;9.90;37.10;;;;;;4996008;28;20229;-52
2022/12/09 10:23:09;;;;;;;22.88;14.75;;;9.60;37.70;;;;;;4995623;28;20273;-52
2022/12/09 10:25:42;;;;;;;18.50;13.18;;;9.40;38.50;;;;;;4995948;28;20189;-51
2022/12/09 10:28:31;;;;;;;23.50;15.02;;;9.40;38.70;;;;;;4995867;28;20277;-51
2022/12/09 10:30:57;;;;;;;20.13;14.32;;;9.30;38.60;;;;;;4995564;28;20237;-52
2022/12/09 10:33:35;;;;;;;20.93;13.73;;;9.30;38.70;;;;;;4995774;28;20186;-52
2022/12/09 10:36:01;;;;;;;23.40;15.07;;;9.20;38.60;;;;;;4995705;28;20429;-52
2022/12/09 10:38:30;;;;;;;25.45;15.00;;;9.20;38.80;;;;;;4995892;28;20193;-52
2022/12/09 10:43:33;;;;;;;20.85;14.38;;;9.40;38.90;;;;;;4995787;28;20224;-52
2022/12/09 10:44:18;;;;;;;21.83;15.98;;;10.00;39.00;;;;;;4995233;28;20183;-52
2022/12/09 10:46:44;;;;;;;26.40;16.73;;;10.40;38.10;;;;;;4995628;28;20546;-51
2022/12/09 10:49:19;;;;;;;25.17;13.87;;;10.60;37.00;;;;;;4995417;28;20202;-52
2022/12/09 10:51:50;;;;;;;25.35;16.17;;;10.80;36.40;;;;;;4995517;28;20730;-51
2022/12/09 10:54:25;;;;;;;24.45;14.52;;;10.80;36.80;;;;;;4995534;28;20257;-52
2022/12/09 10:57:06;;;;;;;21.70;14.35;;;10.80;35.90;;;;;;4995144;28;20206;-51
2022/12/09 10:59:33;;;;;;;23.55;14.27;;;10.80;36.80;;;;;;4994349;28;20538;-52
2022/12/09 11:02:08;;;;;;;23.20;18.08;;;10.70;35.90;;;;;;4994911;28;20255;-52
2022/12/09 11:04:36;;;;;;;24.98;15.73;;;10.70;36.40;;;;;;4995058;28;20269;-51
2022/12/09 11:07:11;;;;;;;21.17;15.80;;;10.70;36.60;;;;;;4995024;28;20202;-51
2022/12/09 11:09:45;;;;;;;22.55;16.48;;;10.60;36.50;;;;;;4995043;28;20759;-51
2022/12/09 11:12:26;;;;;;;22.88;14.73;;;10.50;35.80;;;;;;4995018;28;20186;-51
2022/12/09 11:14:55;;;;;;;24.33;15.05;;;10.50;36.20;;;;;;4994821;28;20171;-51
2022/12/09 11:17:24;;;;;;;23.83;15.50;;;10.40;36.30;;;;;;4994859;28;20200;-52
2022/12/09 11:19:52;;;;;;;23.95;15.85;;;10.30;36.20;;;;;;4995160;28;20215;-51
2022/12/09 11:22:27;;;;;;;23.27;16.00;;;10.30;36.80;;;;;;4994631;28;20223;-52
2022/12/09 11:24:54;;;;;;;22.77;16.30;;;10.30;37.40;;;;;;4994680;28;20178;-52
2022/12/09 11:27:29;;;;;;;23.63;15.75;;;10.40;36.80;;;;;;4994846;28;20203;-51
2022/12/09 11:30:12;;;;;;;22.65;16.00;;;10.50;36.50;;;;;;4994675;28;20221;-51
2022/12/09 11:32:56;;;;;;;20.27;14.05;;;10.80;36.10;;;;;;4994544;28;20163;-52
2022/12/09 11:35:35;;;;;;;23.70;15.20;;;11.10;36.00;;;;;;4994412;28;20179;-52
2022/12/09 11:38:22;;;;;;;19.27;14.98;;;11.20;35.90;;;;;;4994585;28;20202;-52
2022/12/09 11:41:04;;;;;;;21.67;15.57;;;11.40;36.30;;;;;;4994699;28;20186;-52
2022/12/09 11:43:41;;;;;;;15.80;13.00;;;11.40;35.80;;;;;;4994200;28;20732;-52
2022/12/09 11:46:13;;;;;;;19.42;13.70;;;11.50;34.20;;;;;;4994608;28;20203;-51
2022/12/09 11:48:46;;;;;;;19.63;13.60;;;12.00;33.80;;;;;;4994578;28;20226;-52
2022/12/09 11:51:26;;;;;;;21.08;14.43;;;12.20;34.40;;;;;;4994537;28;20234;-52
2022/12/09 11:53:57;;;;;;;17.60;12.68;;;12.40;34.10;;;;;;4994077;28;20160;-52
2022/12/09 11:56:26;;;;;;;17.40;13.40;;;12.20;33.10;;;;;;4994112;28;20214;-52
2022/12/09 11:59:17;;;;;;;20.25;14.13;;;12.10;33.20;;;;;;4994284;28;20180;-52
2022/12/09 12:02:04;;;;;;;18.88;13.25;;;12.00;34.50;;;;;;4994142;28;20168;-51
2022/12/09 12:04:37;;;;;;;16.67;13.63;;;11.80;32.90;;;;;;4994271;28;20160;-51
2022/12/09 12:07:37;;;;;;;15.95;12.70;;;11.70;34.00;;;;;;4994136;28;20204;-51
2022/12/09 12:10:08;;;;;;;18.75;13.77;;;11.70;33.10;;;;;;4993468;28;20207;-51
2022/12/09 12:13:01;;;;;;;18.55;14.98;;;11.50;33.40;;;;;;4994022;28;20173;-51
2022/12/09 12:16:06;;;;;;;19.60;14.48;;;11.60;33.20;;;;;;4993761;28;20221;-52
2022/12/09 12:18:40;;;;;;;20.90;13.45;;;11.70;33.20;;;;;;4993463;28;20179;-52
2022/12/09 12:21:41;;;;;;;20.35;14.77;;;11.80;33.40;;;;;;4993777;28;20184;-51
2022/12/09 12:24:12;;;;;;;22.40;13.73;;;12.10;33.70;;;;;;4983446;28;20179;-52
2022/12/09 12:26:57;;;;;;;22.05;14.48;;;12.20;32.30;;;;;;4993812;28;20224;-52
2022/12/09 12:29:43;;;;;;;22.50;15.55;;;12.20;31.40;;;;;;4993427;28;20752;-52
2022/12/09 12:32:23;;;;;;;18.73;13.35;;;12.10;32.80;;;;;;4993344;28;20162;-51
2022/12/09 12:35:07;;;;;;;21.13;14.32;;;12.10;32.90;;;;;;4993511;28;20585;-52
2022/12/09 12:37:42;;;;;;;23.30;15.02;;;12.20;32.50;;;;;;4993653;28;20194;-51
2022/12/09 12:40:34;;;;;;;17.70;14.27;;;12.40;32.70;;;;;;4993346;28;20253;-52
2022/12/09 12:47:00;;;;;;;20.95;15.57;;;14.30;31.10;;;;;;4993251;28;20206;-52
2022/12/09 12:49:34;;;;;;;19.48;13.38;;;14.40;30.50;;;;;;4971280;28;20612;-52
2022/12/09 12:52:20;;;;;;;22.38;15.15;;;14.70;29.60;;;;;;4971182;28;20191;-52
2022/12/09 12:55:16;;;;;;;21.25;14.18;;;15.70;29.20;;;;;;4971273;28;20188;-52
2022/12/09 12:58:09;;;;;;;16.33;13.52;;;16.30;26.70;;;;;;4962503;28;20215;-51
2022/12/09 13:01:13;;;;;;;17.10;12.88;;;16.00;25.90;;;;;;4971317;28;20179;-52
2022/12/09 13:04:05;;;;;;;18.92;14.93;;;15.10;26.30;;;;;;4971121;28;20212;-52
2022/12/09 13:06:36;;;;;;;24.40;14.45;;;14.10;28.30;;;;;;4971073;28;20574;-51
2022/12/09 13:09:08;;;;;;;18.10;14.18;;;13.30;29.00;;;;;;4971031;28;20207;-51
2022/12/09 13:12:10;;;;;;;18.90;13.27;;;12.70;29.70;;;;;;4971152;28;20161;-51